sensor_id;sensor_type;location;lat;lon;timestamp;pressure;altitude;pressure_sealevel;temperature;humidity
63395;BME280;49531;-34.520;150.798;2023-06-14T00:01:23;100273.97;;;17.66;41.73
63395;BME280;49531;-34.520;150.798;2023-06-14T00:03:50;100278.63;;;17.71;41.82
63395;BME280;49531;-34.520;150.798;2023-06-14T00:06:18;100289.25;;;17.77;42.00
63395;BME280;49531;-34.520;150.798;2023-06-14T00:08:45;100277.44;;;17.83;42.03
63395;BME280;49531;-34.520;150.798;2023-06-14T00:11:12;100287.75;;;17.86;42.16
63395;BME280;49531;-34.520;150.798;2023-06-14T00:13:40;100306.78;;;17.96;42.26
63395;BME280;49531;-34.520;150.798;2023-06-14T00:16:07;100307.13;;;18.05;41.82
63395;BME280;49531;-34.520;150.798;2023-06-14T00:18:34;100265.69;;;17.94;42.01
63395;BME280;49531;-34.520;150.798;2023-06-14T00:21:01;100293.41;;;18.12;41.56
63395;BME280;49531;-34.520;150.798;2023-06-14T00:23:28;100294.59;;;18.21;41.31
63395;BME280;49531;-34.520;150.798;2023-06-14T00:25:55;100274.53;;;18.17;41.34
63395;BME280;49531;-34.520;150.798;2023-06-14T00:28:23;100275.16;;;18.24;41.69
63395;BME280;49531;-34.520;150.798;2023-06-14T00:30:50;100293.31;;;18.28;41.32
63395;BME280;49531;-34.520;150.798;2023-06-14T00:33:17;100298.53;;;18.35;41.42
63395;BME280;49531;-34.520;150.798;2023-06-14T00:35:44;100286.63;;;18.36;41.70
63395;BME280;49531;-34.520;150.798;2023-06-14T00:38:11;100291.53;;;18.39;41.58
63395;BME280;49531;-34.520;150.798;2023-06-14T00:40:39;100271.50;;;18.40;41.53
63395;BME280;49531;-34.520;150.798;2023-06-14T00:43:06;100270.47;;;18.46;41.50
63395;BME280;49531;-34.520;150.798;2023-06-14T00:45:33;100268.34;;;18.48;41.57
63395;BME280;49531;-34.520;150.798;2023-06-14T00:48:02;100255.94;;;18.52;41.36
63395;BME280;49531;-34.520;150.798;2023-06-14T00:50:30;100249.91;;;18.45;40.94
63395;BME280;49531;-34.520;150.798;2023-06-14T00:53:00;100256.53;;;18.59;40.96
63395;BME280;49531;-34.520;150.798;2023-06-14T00:55:27;100253.81;;;18.59;40.95
63395;BME280;49531;-34.520;150.798;2023-06-14T00:57:55;100263.44;;;18.72;40.92
63395;BME280;49531;-34.520;150.798;2023-06-14T01:00:23;100245.78;;;18.64;40.64
63395;BME280;49531;-34.520;150.798;2023-06-14T01:02:50;100251.53;;;18.73;40.87
63395;BME280;49531;-34.520;150.798;2023-06-14T01:05:17;100231.78;;;18.73;40.45
63395;BME280;49531;-34.520;150.798;2023-06-14T01:11:00;100223.06;;;18.65;40.30
63395;BME280;49531;-34.520;150.798;2023-06-14T01:13:34;100238.81;;;18.74;40.26
63395;BME280;49531;-34.520;150.798;2023-06-14T01:16:02;100255.63;;;18.81;39.95
63395;BME280;49531;-34.520;150.798;2023-06-14T01:18:30;100243.69;;;18.72;39.74
63395;BME280;49531;-34.520;150.798;2023-06-14T01:20:58;100227.38;;;18.61;39.48
63395;BME280;49531;-34.520;150.798;2023-06-14T01:23:26;100264.84;;;18.85;39.40
63395;BME280;49531;-34.520;150.798;2023-06-14T01:25:59;100230.19;;;18.77;39.72
63395;BME280;49531;-34.520;150.798;2023-06-14T01:28:29;100244.75;;;18.71;38.06
63395;BME280;49531;-34.520;150.798;2023-06-14T01:31:00;100230.13;;;18.67;38.48
63395;BME280;49531;-34.520;150.798;2023-06-14T01:33:31;100224.16;;;18.64;38.36
63395;BME280;49531;-34.520;150.798;2023-06-14T01:36:00;100214.59;;;18.57;38.75
63395;BME280;49531;-34.520;150.798;2023-06-14T01:38:29;100188.31;;;18.52;38.70
63395;BME280;49531;-34.520;150.798;2023-06-14T01:40:58;100210.63;;;18.64;39.15
63395;BME280;49531;-34.520;150.798;2023-06-14T01:43:26;100204.47;;;18.74;38.41
63395;BME280;49531;-34.520;150.798;2023-06-14T01:45:57;100210.97;;;18.73;38.67
63395;BME280;49531;-34.520;150.798;2023-06-14T01:48:26;100213.41;;;18.75;38.47
63395;BME280;49531;-34.520;150.798;2023-06-14T01:50:53;100202.59;;;18.75;38.64
63395;BME280;49531;-34.520;150.798;2023-06-14T01:53:32;100218.03;;;18.79;38.82
63395;BME280;49531;-34.520;150.798;2023-06-14T01:55:59;100219.41;;;18.87;38.44
63395;BME280;49531;-34.520;150.798;2023-06-14T01:58:27;100221.31;;;18.86;38.63
63395;BME280;49531;-34.520;150.798;2023-06-14T02:00:54;100214.22;;;18.75;38.76
63395;BME280;49531;-34.520;150.798;2023-06-14T02:03:22;100210.44;;;18.81;38.89
63395;BME280;49531;-34.520;150.798;2023-06-14T02:05:51;100205.59;;;18.83;38.59
63395;BME280;49531;-34.520;150.798;2023-06-14T02:08:18;100205.06;;;18.86;38.68
63395;BME280;49531;-34.520;150.798;2023-06-14T02:10:45;100120.69;;;18.47;38.65
63395;BME280;49531;-34.520;150.798;2023-06-14T02:13:12;100184.19;;;18.82;38.61
63395;BME280;49531;-34.520;150.798;2023-06-14T02:15:39;100204.00;;;18.87;38.77
63395;BME280;49531;-34.520;150.798;2023-06-14T02:18:10;100213.22;;;18.91;38.68
63395;BME280;49531;-34.520;150.798;2023-06-14T02:20:40;100186.66;;;18.78;38.58
63395;BME280;49531;-34.520;150.798;2023-06-14T02:23:07;100208.00;;;18.80;38.42
63395;BME280;49531;-34.520;150.798;2023-06-14T02:25:34;100236.78;;;18.96;38.51
63395;BME280;49531;-34.520;150.798;2023-06-14T02:28:01;100204.25;;;18.86;38.58
63395;BME280;49531;-34.520;150.798;2023-06-14T02:30:29;100203.13;;;18.77;38.52
63395;BME280;49531;-34.520;150.798;2023-06-14T02:32:57;100212.06;;;18.82;38.72
63395;BME280;49531;-34.520;150.798;2023-06-14T02:35:25;100208.84;;;18.85;38.68
63395;BME280;49531;-34.520;150.798;2023-06-14T02:37:53;100221.06;;;18.93;38.50
63395;BME280;49531;-34.520;150.798;2023-06-14T02:40:20;100221.88;;;18.93;38.19
63395;BME280;49531;-34.520;150.798;2023-06-14T02:42:47;100201.25;;;18.82;38.31
63395;BME280;49531;-34.520;150.798;2023-06-14T02:45:15;100193.38;;;18.76;38.07
63395;BME280;49531;-34.520;150.798;2023-06-14T02:47:42;100193.69;;;18.84;38.41
63395;BME280;49531;-34.520;150.798;2023-06-14T02:50:09;100210.47;;;18.86;38.41
63395;BME280;49531;-34.520;150.798;2023-06-14T02:52:36;100189.59;;;18.77;38.58
63395;BME280;49531;-34.520;150.798;2023-06-14T02:55:04;100214.53;;;18.84;38.66
63395;BME280;49531;-34.520;150.798;2023-06-14T02:57:32;100212.91;;;18.88;38.52
63395;BME280;49531;-34.520;150.798;2023-06-14T02:59:59;100205.59;;;18.78;38.46
63395;BME280;49531;-34.520;150.798;2023-06-14T03:02:26;100185.53;;;18.74;38.15
63395;BME280;49531;-34.520;150.798;2023-06-14T03:04:53;100202.09;;;18.88;38.15
63395;BME280;49531;-34.520;150.798;2023-06-14T03:07:22;100210.50;;;18.91;38.21
63395;BME280;49531;-34.520;150.798;2023-06-14T03:09:49;100192.34;;;18.87;37.95
63395;BME280;49531;-34.520;150.798;2023-06-14T03:12:16;100224.00;;;18.86;38.06
63395;BME280;49531;-34.520;150.798;2023-06-14T03:14:43;100181.50;;;18.82;38.00
63395;BME280;49531;-34.520;150.798;2023-06-14T03:17:13;100185.28;;;18.81;38.05
63395;BME280;49531;-34.520;150.798;2023-06-14T03:19:40;100205.03;;;18.76;37.87
63395;BME280;49531;-34.520;150.798;2023-06-14T03:22:07;100174.38;;;18.65;38.04
63395;BME280;49531;-34.520;150.798;2023-06-14T03:24:34;100202.63;;;18.85;38.04
63395;BME280;49531;-34.520;150.798;2023-06-14T03:27:04;100192.31;;;18.82;37.43
63395;BME280;49531;-34.520;150.798;2023-06-14T03:29:31;100192.63;;;18.85;37.46
63395;BME280;49531;-34.520;150.798;2023-06-14T03:32:01;100192.88;;;18.84;37.52
63395;BME280;49531;-34.520;150.798;2023-06-14T03:34:28;100192.88;;;18.79;37.32
63395;BME280;49531;-34.520;150.798;2023-06-14T03:36:55;100183.63;;;18.75;37.55
63395;BME280;49531;-34.520;150.798;2023-06-14T03:39:22;100182.28;;;18.72;37.36
63395;BME280;49531;-34.520;150.798;2023-06-14T03:41:50;100179.28;;;18.69;37.34
63395;BME280;49531;-34.520;150.798;2023-06-14T03:44:18;100208.53;;;18.77;37.70
63395;BME280;49531;-34.520;150.798;2023-06-14T03:46:46;100186.06;;;18.71;37.79
63395;BME280;49531;-34.520;150.798;2023-06-14T03:49:14;100196.09;;;18.76;37.06
63395;BME280;49531;-34.520;150.798;2023-06-14T03:51:43;100202.00;;;18.68;36.80
63395;BME280;49531;-34.520;150.798;2023-06-14T03:54:11;100208.22;;;18.68;37.17
63395;BME280;49531;-34.520;150.798;2023-06-14T03:56:38;100177.53;;;18.57;37.24
63395;BME280;49531;-34.520;150.798;2023-06-14T03:59:05;100178.34;;;18.58;37.16
63395;BME280;49531;-34.520;150.798;2023-06-14T04:01:32;100198.72;;;18.65;37.52
63395;BME280;49531;-34.520;150.798;2023-06-14T04:04:00;100166.97;;;18.56;37.16
63395;BME280;49531;-34.520;150.798;2023-06-14T04:06:27;100187.63;;;18.62;37.05
63395;BME280;49531;-34.520;150.798;2023-06-14T04:08:59;100188.91;;;18.59;37.08
63395;BME280;49531;-34.520;150.798;2023-06-14T04:11:28;100207.63;;;18.61;37.33
63395;BME280;49531;-34.520;150.798;2023-06-14T04:13:56;100203.59;;;18.63;37.36
63395;BME280;49531;-34.520;150.798;2023-06-14T04:16:23;100182.94;;;18.57;37.06
63395;BME280;49531;-34.520;150.798;2023-06-14T04:18:51;100202.69;;;18.58;36.75
63395;BME280;49531;-34.520;150.798;2023-06-14T04:21:19;100183.97;;;18.51;36.37
63395;BME280;49531;-34.520;150.798;2023-06-14T04:23:46;100193.16;;;18.50;36.76
63395;BME280;49531;-34.520;150.798;2023-06-14T04:26:13;100211.69;;;18.63;36.65
63395;BME280;49531;-34.520;150.798;2023-06-14T04:28:42;100192.22;;;18.61;37.17
63395;BME280;49531;-34.520;150.798;2023-06-14T04:31:13;100183.56;;;18.64;36.15
63395;BME280;49531;-34.520;150.798;2023-06-14T04:33:40;100206.59;;;18.67;36.85
63395;BME280;49531;-34.520;150.798;2023-06-14T04:36:13;100197.88;;;18.60;36.30
63395;BME280;49531;-34.520;150.798;2023-06-14T04:38:43;100202.22;;;18.61;36.62
63395;BME280;49531;-34.520;150.798;2023-06-14T04:41:13;100207.34;;;18.62;36.22
63395;BME280;49531;-34.520;150.798;2023-06-14T04:43:40;100222.81;;;18.67;36.65
63395;BME280;49531;-34.520;150.798;2023-06-14T04:46:09;100213.47;;;18.53;36.00
63395;BME280;49531;-34.520;150.798;2023-06-14T04:48:39;100203.69;;;18.47;35.73
63395;BME280;49531;-34.520;150.798;2023-06-14T04:51:09;100237.41;;;18.66;36.33
63395;BME280;49531;-34.520;150.798;2023-06-14T04:53:36;100192.69;;;18.58;36.22
63395;BME280;49531;-34.520;150.798;2023-06-14T04:56:04;100227.66;;;18.65;36.25
63395;BME280;49531;-34.520;150.798;2023-06-14T04:58:31;100226.59;;;18.66;36.38
63395;BME280;49531;-34.520;150.798;2023-06-14T05:00:59;100220.25;;;18.55;36.62
63395;BME280;49531;-34.520;150.798;2023-06-14T05:03:26;100225.22;;;18.63;36.10
63395;BME280;49531;-34.520;150.798;2023-06-14T05:05:53;100246.59;;;18.65;36.53
63395;BME280;49531;-34.520;150.798;2023-06-14T05:08:21;100227.03;;;18.58;36.67
63395;BME280;49531;-34.520;150.798;2023-06-14T05:10:50;100235.47;;;18.61;36.32
63395;BME280;49531;-34.520;150.798;2023-06-14T05:13:17;100234.56;;;18.51;36.16
63395;BME280;49531;-34.520;150.798;2023-06-14T05:15:44;100246.91;;;18.69;36.21
63395;BME280;49531;-34.520;150.798;2023-06-14T05:18:13;100253.81;;;18.59;36.37
63395;BME280;49531;-34.520;150.798;2023-06-14T05:20:41;100267.75;;;18.73;36.46
63395;BME280;49531;-34.520;150.798;2023-06-14T05:23:09;100255.78;;;18.64;36.71
63395;BME280;49531;-34.520;150.798;2023-06-14T05:25:43;100279.63;;;18.67;36.68
63395;BME280;49531;-34.520;150.798;2023-06-14T05:28:10;100283.66;;;18.64;37.05
63395;BME280;49531;-34.520;150.798;2023-06-14T05:30:38;100271.81;;;18.71;35.42
63395;BME280;49531;-34.520;150.798;2023-06-14T05:33:07;100273.94;;;18.69;34.44
63395;BME280;49531;-34.520;150.798;2023-06-14T05:35:34;100262.78;;;18.60;34.93
63395;BME280;49531;-34.520;150.798;2023-06-14T05:38:01;100255.63;;;18.76;34.61
63395;BME280;49531;-34.520;150.798;2023-06-14T05:40:28;100283.53;;;18.86;34.95
63395;BME280;49531;-34.520;150.798;2023-06-14T05:42:55;100279.19;;;18.85;34.38
63395;BME280;49531;-34.520;150.798;2023-06-14T05:45:22;100279.22;;;18.90;34.10
63395;BME280;49531;-34.520;150.798;2023-06-14T05:47:50;100253.69;;;18.71;34.57
63395;BME280;49531;-34.520;150.798;2023-06-14T05:50:18;100277.56;;;18.84;34.59
63395;BME280;49531;-34.520;150.798;2023-06-14T05:52:45;100288.47;;;18.94;35.75
63395;BME280;49531;-34.520;150.798;2023-06-14T05:55:12;100305.97;;;18.82;35.85
63395;BME280;49531;-34.520;150.798;2023-06-14T05:57:40;100293.44;;;18.71;36.29
63395;BME280;49531;-34.520;150.798;2023-06-14T06:00:08;100317.97;;;18.96;36.18
63395;BME280;49531;-34.520;150.798;2023-06-14T06:02:41;100337.56;;;19.08;35.29
63395;BME280;49531;-34.520;150.798;2023-06-14T06:05:10;100323.00;;;19.19;34.71
63395;BME280;49531;-34.520;150.798;2023-06-14T06:07:38;100318.69;;;19.18;34.70
63395;BME280;49531;-34.520;150.798;2023-06-14T06:10:07;100317.88;;;19.23;34.56
63395;BME280;49531;-34.520;150.798;2023-06-14T06:12:34;100333.59;;;19.26;34.89
63395;BME280;49531;-34.520;150.798;2023-06-14T06:15:01;100336.44;;;19.04;34.13
63395;BME280;49531;-34.520;150.798;2023-06-14T06:17:29;100336.44;;;19.04;34.79
63395;BME280;49531;-34.520;150.798;2023-06-14T06:19:56;100323.69;;;18.99;33.75
63395;BME280;49531;-34.520;150.798;2023-06-14T06:22:24;100324.50;;;19.00;34.30
63395;BME280;49531;-34.520;150.798;2023-06-14T06:24:51;100323.25;;;18.81;34.18
63395;BME280;49531;-34.520;150.798;2023-06-14T06:27:18;100289.09;;;18.70;34.34
63395;BME280;49531;-34.520;150.798;2023-06-14T06:29:46;100325.94;;;18.76;34.08
63395;BME280;49531;-34.520;150.798;2023-06-14T06:32:15;100314.53;;;18.69;34.17
63395;BME280;49531;-34.520;150.798;2023-06-14T06:34:42;100322.13;;;18.72;35.27
63395;BME280;49531;-34.520;150.798;2023-06-14T06:37:09;100320.50;;;18.71;35.42
63395;BME280;49531;-34.520;150.798;2023-06-14T06:39:36;100310.88;;;18.58;35.52
63395;BME280;49531;-34.520;150.798;2023-06-14T06:42:03;100316.38;;;18.63;35.57
63395;BME280;49531;-34.520;150.798;2023-06-14T06:44:31;100312.50;;;18.59;36.04
63395;BME280;49531;-34.520;150.798;2023-06-14T06:46:59;100331.13;;;18.55;35.86
63395;BME280;49531;-34.520;150.798;2023-06-14T06:49:27;100361.84;;;18.66;36.27
63395;BME280;49531;-34.520;150.798;2023-06-14T06:52:02;100351.84;;;18.67;36.29
63395;BME280;49531;-34.520;150.798;2023-06-14T06:54:30;100345.78;;;18.59;36.17
63395;BME280;49531;-34.520;150.798;2023-06-14T06:56:57;100357.50;;;18.65;36.22
63395;BME280;49531;-34.520;150.798;2023-06-14T06:59:25;100356.59;;;18.59;36.16
63395;BME280;49531;-34.520;150.798;2023-06-14T07:01:52;100340.88;;;18.56;36.17
63395;BME280;49531;-34.520;150.798;2023-06-14T07:04:19;100332.66;;;18.46;36.67
63395;BME280;49531;-34.520;150.798;2023-06-14T07:06:47;100358.28;;;18.60;36.14
63395;BME280;49531;-34.520;150.798;2023-06-14T07:09:14;100354.16;;;18.58;36.46
63395;BME280;49531;-34.520;150.798;2023-06-14T07:11:43;100367.13;;;18.56;36.76
63395;BME280;49531;-34.520;150.798;2023-06-14T07:14:11;100354.88;;;18.48;36.48
63395;BME280;49531;-34.520;150.798;2023-06-14T07:16:39;100377.63;;;18.52;36.31
63395;BME280;49531;-34.520;150.798;2023-06-14T07:19:07;100363.53;;;18.50;36.24
63395;BME280;49531;-34.520;150.798;2023-06-14T07:21:35;100372.66;;;18.39;36.60
63395;BME280;49531;-34.520;150.798;2023-06-14T07:24:05;100352.09;;;18.38;35.92
63395;BME280;49531;-34.520;150.798;2023-06-14T07:26:35;100379.72;;;18.45;36.04
63395;BME280;49531;-34.520;150.798;2023-06-14T07:29:02;100359.63;;;18.36;36.34
63395;BME280;49531;-34.520;150.798;2023-06-14T07:31:29;100362.34;;;18.36;36.36
63395;BME280;49531;-34.520;150.798;2023-06-14T07:33:56;100359.47;;;18.21;36.48
63395;BME280;49531;-34.520;150.798;2023-06-14T07:36:24;100381.81;;;18.38;36.24
63395;BME280;49531;-34.520;150.798;2023-06-14T07:38:51;100392.34;;;18.40;35.88
63395;BME280;49531;-34.520;150.798;2023-06-14T07:41:18;100392.34;;;18.40;35.98
63395;BME280;49531;-34.520;150.798;2023-06-14T07:43:45;100379.06;;;18.33;35.87
63395;BME280;49531;-34.520;150.798;2023-06-14T07:46:14;100392.84;;;18.31;36.02
63395;BME280;49531;-34.520;150.798;2023-06-14T07:48:41;100393.34;;;18.28;36.31
63395;BME280;49531;-34.520;150.798;2023-06-14T07:51:08;100385.16;;;18.23;36.51
63395;BME280;49531;-34.520;150.798;2023-06-14T07:53:35;100392.47;;;18.23;36.31
63395;BME280;49531;-34.520;150.798;2023-06-14T07:56:03;100399.56;;;18.29;35.99
63395;BME280;49531;-34.520;150.798;2023-06-14T07:58:30;100392.97;;;18.20;36.26
63395;BME280;49531;-34.520;150.798;2023-06-14T08:00:57;100400.81;;;18.21;36.29
63395;BME280;49531;-34.520;150.798;2023-06-14T08:03:25;100377.59;;;17.98;36.07
63395;BME280;49531;-34.520;150.798;2023-06-14T08:05:53;100392.91;;;18.15;36.23
63395;BME280;49531;-34.520;150.798;2023-06-14T08:08:20;100376.31;;;18.06;36.36
63395;BME280;49531;-34.520;150.798;2023-06-14T08:10:47;100388.31;;;18.15;36.25
63395;BME280;49531;-34.520;150.798;2023-06-14T08:13:14;100404.22;;;18.12;36.39
63395;BME280;49531;-34.520;150.798;2023-06-14T08:15:41;100404.72;;;18.09;36.49
63395;BME280;49531;-34.520;150.798;2023-06-14T08:18:08;100400.06;;;18.04;36.53
63395;BME280;49531;-34.520;150.798;2023-06-14T08:20:35;100416.03;;;18.06;36.70
63395;BME280;49531;-34.520;150.798;2023-06-14T08:23:03;100417.34;;;18.03;36.86
63395;BME280;49531;-34.520;150.798;2023-06-14T08:25:31;100407.25;;;17.93;36.88
63395;BME280;49531;-34.520;150.798;2023-06-14T08:27:58;100396.06;;;17.85;36.81
63395;BME280;49531;-34.520;150.798;2023-06-14T08:30:27;100420.25;;;17.96;36.82
63395;BME280;49531;-34.520;150.798;2023-06-14T08:32:54;100401.47;;;17.85;37.05
63395;BME280;49531;-34.520;150.798;2023-06-14T08:35:23;100426.41;;;17.92;36.95
63395;BME280;49531;-34.520;150.798;2023-06-14T08:37:50;100416.59;;;17.86;37.00
63395;BME280;49531;-34.520;150.798;2023-06-14T08:40:20;100387.00;;;17.74;36.63
63395;BME280;49531;-34.520;150.798;2023-06-14T08:42:51;100423.38;;;17.88;36.83
63395;BME280;49531;-34.520;150.798;2023-06-14T08:45:24;100409.97;;;17.77;36.80
63395;BME280;49531;-34.520;150.798;2023-06-14T08:47:52;100440.09;;;17.85;36.90
63395;BME280;49531;-34.520;150.798;2023-06-14T08:50:24;100410.72;;;17.72;36.81
63395;BME280;49531;-34.520;150.798;2023-06-14T08:52:57;100418.00;;;17.72;36.94
63395;BME280;49531;-34.520;150.798;2023-06-14T08:55:29;100445.34;;;17.75;37.18
63395;BME280;49531;-34.520;150.798;2023-06-14T08:57:57;100452.31;;;17.71;37.16
63395;BME280;49531;-34.520;150.798;2023-06-14T09:00:27;100441.50;;;17.71;37.34
63395;BME280;49531;-34.520;150.798;2023-06-14T09:02:54;100450.75;;;17.75;37.24
63395;BME280;49531;-34.520;150.798;2023-06-14T09:05:25;100450.00;;;17.63;37.04
63395;BME280;49531;-34.520;150.798;2023-06-14T09:07:54;100453.72;;;17.57;37.33
63395;BME280;49531;-34.520;150.798;2023-06-14T09:10:22;100446.19;;;17.59;37.36
63395;BME280;49531;-34.520;150.798;2023-06-14T09:12:52;100441.50;;;17.54;37.59
63395;BME280;49531;-34.520;150.798;2023-06-14T09:15:19;100449.38;;;17.56;37.61
63395;BME280;49531;-34.520;150.798;2023-06-14T09:17:46;100459.53;;;17.49;37.55
63395;BME280;49531;-34.520;150.798;2023-06-14T09:20:14;100466.81;;;17.48;37.82
63395;BME280;49531;-34.520;150.798;2023-06-14T09:22:45;100469.66;;;17.42;37.62
63395;BME280;49531;-34.520;150.798;2023-06-14T09:25:12;100466.38;;;17.40;37.79
63395;BME280;49531;-34.520;150.798;2023-06-14T09:27:42;100488.66;;;17.47;37.64
63395;BME280;49531;-34.520;150.798;2023-06-14T09:30:10;100496.16;;;17.45;37.97
63395;BME280;49531;-34.520;150.798;2023-06-14T09:32:38;100498.28;;;17.43;37.94
63395;BME280;49531;-34.520;150.798;2023-06-14T09:35:07;100491.81;;;17.27;37.79
63395;BME280;49531;-34.520;150.798;2023-06-14T09:37:35;100523.16;;;17.45;37.89
63395;BME280;49531;-34.520;150.798;2023-06-14T09:40:05;100495.91;;;17.29;38.01
63395;BME280;49531;-34.520;150.798;2023-06-14T09:42:33;100525.22;;;17.38;38.00
63395;BME280;49531;-34.520;150.798;2023-06-14T09:45:04;100515.63;;;17.30;38.10
63395;BME280;49531;-34.520;150.798;2023-06-14T09:47:32;100523.63;;;17.25;38.13
63395;BME280;49531;-34.520;150.798;2023-06-14T09:49:59;100524.19;;;17.27;38.32
63395;BME280;49531;-34.520;150.798;2023-06-14T09:52:27;100533.13;;;17.27;38.45
63395;BME280;49531;-34.520;150.798;2023-06-14T09:54:55;100527.38;;;17.24;38.43
63395;BME280;49531;-34.520;150.798;2023-06-14T09:57:23;100532.31;;;17.27;38.42
63395;BME280;49531;-34.520;150.798;2023-06-14T09:59:57;100513.81;;;17.19;38.36
63395;BME280;49531;-34.520;150.798;2023-06-14T10:02:29;100513.75;;;17.14;38.52
63395;BME280;49531;-34.520;150.798;2023-06-14T10:05:07;100530.31;;;17.22;38.26
63395;BME280;49531;-34.520;150.798;2023-06-14T10:08:00;100542.69;;;17.18;38.12
63395;BME280;49531;-34.520;150.798;2023-06-14T10:10:27;100529.59;;;17.10;38.29
63395;BME280;49531;-34.520;150.798;2023-06-14T10:12:54;100531.13;;;17.06;38.31
63395;BME280;49531;-34.520;150.798;2023-06-14T10:15:35;100537.25;;;17.02;38.38
63395;BME280;49531;-34.520;150.798;2023-06-14T10:18:31;100559.28;;;17.10;38.58
63395;BME280;49531;-34.520;150.798;2023-06-14T10:21:09;100552.13;;;17.04;38.41
63395;BME280;49531;-34.520;150.798;2023-06-14T10:23:42;100559.19;;;17.05;38.58
63395;BME280;49531;-34.520;150.798;2023-06-14T10:26:18;100555.78;;;16.98;38.62
63395;BME280;49531;-34.520;150.798;2023-06-14T10:29:01;100560.50;;;16.91;38.68
63395;BME280;49531;-34.520;150.798;2023-06-14T10:31:40;100571.19;;;16.86;38.75
63395;BME280;49531;-34.520;150.798;2023-06-14T10:34:08;100578.53;;;17.02;38.90
63395;BME280;49531;-34.520;150.798;2023-06-14T10:36:36;100580.22;;;16.91;38.76
63395;BME280;49531;-34.520;150.798;2023-06-14T10:39:07;100566.38;;;16.88;38.90
63395;BME280;49531;-34.520;150.798;2023-06-14T10:41:38;100592.41;;;16.94;38.97
63395;BME280;49531;-34.520;150.798;2023-06-14T10:44:31;100583.38;;;16.88;39.07
63395;BME280;49531;-34.520;150.798;2023-06-14T10:46:59;100596.06;;;16.88;39.31
63395;BME280;49531;-34.520;150.798;2023-06-14T10:49:41;100600.88;;;16.86;39.18
63395;BME280;49531;-34.520;150.798;2023-06-14T10:52:11;100605.09;;;16.82;39.15
63395;BME280;49531;-34.520;150.798;2023-06-14T10:54:55;100582.94;;;16.80;39.20
63395;BME280;49531;-34.520;150.798;2023-06-14T10:57:22;100598.06;;;16.81;39.19
63395;BME280;49531;-34.520;150.798;2023-06-14T10:59:50;100605.69;;;16.84;39.35
63395;BME280;49531;-34.520;150.798;2023-06-14T11:02:46;100598.31;;;16.79;39.17
63395;BME280;49531;-34.520;150.798;2023-06-14T11:05:15;100604.50;;;16.80;39.27
63395;BME280;49531;-34.520;150.798;2023-06-14T11:10:39;100621.44;;;16.75;39.36
63395;BME280;49531;-34.520;150.798;2023-06-14T11:13:08;100606.78;;;16.71;39.52
63395;BME280;49531;-34.520;150.798;2023-06-14T11:15:36;100619.09;;;16.67;39.43
63395;BME280;49531;-34.520;150.798;2023-06-14T11:18:06;100621.78;;;16.67;39.39
63395;BME280;49531;-34.520;150.798;2023-06-14T11:20:35;100622.63;;;16.67;39.50
63395;BME280;49531;-34.520;150.798;2023-06-14T11:23:03;100627.44;;;16.65;39.36
63395;BME280;49531;-34.520;150.798;2023-06-14T11:25:30;100631.38;;;16.51;39.37
63395;BME280;49531;-34.520;150.798;2023-06-14T11:27:58;100642.75;;;16.53;39.38
63395;BME280;49531;-34.520;150.798;2023-06-14T11:30:25;100644.50;;;16.59;39.38
63395;BME280;49531;-34.520;150.798;2023-06-14T11:32:54;100617.34;;;16.38;39.24
63395;BME280;49531;-34.520;150.798;2023-06-14T11:35:23;100637.47;;;16.47;39.49
63395;BME280;49531;-34.520;150.798;2023-06-14T11:37:55;100656.94;;;16.49;39.48
63395;BME280;49531;-34.520;150.798;2023-06-14T11:40:25;100657.88;;;16.54;39.59
63395;BME280;49531;-34.520;150.798;2023-06-14T11:43:01;100664.78;;;16.50;39.63
63395;BME280;49531;-34.520;150.798;2023-06-14T11:45:30;100666.31;;;16.46;39.69
63395;BME280;49531;-34.520;150.798;2023-06-14T11:47:58;100667.38;;;16.57;39.71
63395;BME280;49531;-34.520;150.798;2023-06-14T11:50:27;100666.78;;;16.55;39.75
63395;BME280;49531;-34.520;150.798;2023-06-14T11:52:56;100661.28;;;16.50;39.75
63395;BME280;49531;-34.520;150.798;2023-06-14T11:55:24;100658.56;;;16.50;39.83
63395;BME280;49531;-34.520;150.798;2023-06-14T11:57:54;100644.06;;;16.39;39.76
63395;BME280;49531;-34.520;150.798;2023-06-14T12:00:25;100644.63;;;16.41;39.61
63395;BME280;49531;-34.520;150.798;2023-06-14T12:02:54;100635.47;;;16.42;39.85
63395;BME280;49531;-34.520;150.798;2023-06-14T12:05:23;100631.28;;;16.34;39.83
63395;BME280;49531;-34.520;150.798;2023-06-14T12:07:59;100651.06;;;16.40;39.91
63395;BME280;49531;-34.520;150.798;2023-06-14T12:10:27;100638.69;;;16.39;39.99
63395;BME280;49531;-34.520;150.798;2023-06-14T12:12:59;100632.13;;;16.35;39.94
63395;BME280;49531;-34.520;150.798;2023-06-14T12:15:30;100628.13;;;16.26;39.90
63395;BME280;49531;-34.520;150.798;2023-06-14T12:17:58;100616.28;;;16.27;40.02
63395;BME280;49531;-34.520;150.798;2023-06-14T12:20:29;100642.53;;;16.31;39.82
63395;BME280;49531;-34.520;150.798;2023-06-14T12:22:59;100653.69;;;16.35;39.91
63395;BME280;49531;-34.520;150.798;2023-06-14T12:25:31;100645.34;;;16.37;39.87
63395;BME280;49531;-34.520;150.798;2023-06-14T12:28:03;100655.78;;;16.33;40.03
63395;BME280;49531;-34.520;150.798;2023-06-14T12:30:31;100637.25;;;16.25;39.96
63395;BME280;49531;-34.520;150.798;2023-06-14T12:32:58;100633.75;;;16.24;40.09
63395;BME280;49531;-34.520;150.798;2023-06-14T12:35:26;100653.44;;;16.25;40.10